createdAt,value
2022-08-17T00:00:49.459Z,9.90
2022-08-17T00:03:30.102Z,9.90
2022-08-17T00:06:12.399Z,10.60
2022-08-17T00:08:48.708Z,9.40
2022-08-17T00:11:26.059Z,10.70
2022-08-17T00:14:01.411Z,10.00
2022-08-17T00:16:56.273Z,11.10
2022-08-17T00:19:29.128Z,10.30
2022-08-17T00:22:34.726Z,11.70
2022-08-17T00:24:54.891Z,11.20
2022-08-17T00:27:29.066Z,9.20
2022-08-17T00:30:31.386Z,11.10
2022-08-17T00:33:28.441Z,10.30
2022-08-17T00:35:58.207Z,9.90
2022-08-17T00:38:28.068Z,11.00
2022-08-17T00:41:00.007Z,11.30
2022-08-17T00:43:45.761Z,10.00
2022-08-17T00:46:40.472Z,10.60
2022-08-17T00:49:11.013Z,11.20
2022-08-17T00:51:46.760Z,9.70
2022-08-17T00:54:16.660Z,11.10
2022-08-17T00:57:07.418Z,10.40
2022-08-17T00:59:56.015Z,9.80
2022-08-17T01:02:41.713Z,10.70
2022-08-17T01:05:20.700Z,12.10
2022-08-17T01:07:51.122Z,11.00
2022-08-17T01:10:59.497Z,11.80
2022-08-17T01:13:13.110Z,10.80
2022-08-17T01:15:48.488Z,9.70
2022-08-17T01:18:16.771Z,10.70
2022-08-17T01:20:55.122Z,11.50
2022-08-17T01:23:25.861Z,10.80
2022-08-17T01:25:58.021Z,10.70
2022-08-17T01:28:52.438Z,9.90
2022-08-17T01:31:19.719Z,10.70
2022-08-17T01:33:48.068Z,12.60
2022-08-17T01:36:16.108Z,11.90
2022-08-17T01:38:44.130Z,9.60
2022-08-17T01:41:16.566Z,13.00
2022-08-17T01:43:51.787Z,10.50
2022-08-17T01:46:24.632Z,11.90
2022-08-17T01:51:21.770Z,12.30
2022-08-17T01:53:53.008Z,12.10
2022-08-17T01:56:26.495Z,11.20
2022-08-17T01:58:54.864Z,15.70
2022-08-17T02:01:28.158Z,11.90
2022-08-17T02:04:00.560Z,10.60
2022-08-17T02:06:45.349Z,12.10
2022-08-17T02:09:23.291Z,11.60
2022-08-17T02:11:57.545Z,11.50
2022-08-17T02:14:26.000Z,11.70
2022-08-17T02:16:56.130Z,13.80
2022-08-17T02:19:24.338Z,12.70
2022-08-17T02:21:55.088Z,11.70
2022-08-17T02:25:00.815Z,11.00
2022-08-17T02:27:17.852Z,12.30
2022-08-17T02:32:40.480Z,12.10
2022-08-17T02:35:09.917Z,13.90
2022-08-17T02:37:38.276Z,12.00
2022-08-17T02:44:14.925Z,12.40
2022-08-17T02:47:02.180Z,12.00
2022-08-17T02:49:46.271Z,11.40
2022-08-17T02:52:43.335Z,13.40
2022-08-17T02:55:49.974Z,14.10
2022-08-17T02:58:35.854Z,12.10
2022-08-17T03:01:17.855Z,12.60
2022-08-17T03:04:01.706Z,13.50
2022-08-17T03:09:09.102Z,11.70
2022-08-17T03:11:41.992Z,12.30
2022-08-17T03:14:12.319Z,13.50
2022-08-17T03:16:42.769Z,13.80
2022-08-17T03:19:13.832Z,12.80
2022-08-17T03:21:54.806Z,13.00
2022-08-17T03:24:28.964Z,12.50
2022-08-17T03:26:59.489Z,15.10
2022-08-17T03:29:29.040Z,15.00
2022-08-17T03:32:02.019Z,11.50
2022-08-17T03:34:30.772Z,12.80
2022-08-17T03:36:59.357Z,16.60
2022-08-17T03:39:28.322Z,16.30
2022-08-17T03:42:07.869Z,13.10
2022-08-17T03:44:57.900Z,13.70
2022-08-17T03:47:47.787Z,14.40
2022-08-17T03:50:37.027Z,16.50
2022-08-17T03:53:34.495Z,15.70
2022-08-17T03:56:22.974Z,16.70
2022-08-17T03:58:51.503Z,15.80
2022-08-17T04:01:19.915Z,14.90
2022-08-17T04:03:52.076Z,13.20
2022-08-17T04:06:22.988Z,13.30
2022-08-17T04:08:51.689Z,15.60
2022-08-17T04:11:41.610Z,17.00
2022-08-17T04:14:51.660Z,17.00
2022-08-17T04:17:34.823Z,16.40
2022-08-17T04:20:07.987Z,13.10
2022-08-17T04:22:36.595Z,13.70
2022-08-17T04:25:18.978Z,14.20
2022-08-17T04:27:52.050Z,10.70
2022-08-17T04:30:21.508Z,11.70
2022-08-17T04:33:04.215Z,12.50
2022-08-17T04:35:41.892Z,14.90
2022-08-17T04:38:13.990Z,14.50
2022-08-17T04:41:06.358Z,15.40
2022-08-17T04:43:37.541Z,14.60
2022-08-17T04:46:08.939Z,13.40
2022-08-17T04:49:03.587Z,16.50
2022-08-17T04:51:56.833Z,13.50
2022-08-17T04:55:21.180Z,18.30
2022-08-17T04:58:03.436Z,18.40
2022-08-17T05:00:35.026Z,15.50
2022-08-17T05:03:40.431Z,17.30
2022-08-17T05:06:29.018Z,16.30
2022-08-17T05:09:06.784Z,16.60
2022-08-17T05:12:38.059Z,24.00
2022-08-17T05:15:39.024Z,15.40
2022-08-17T05:18:13.834Z,15.80
2022-08-17T05:20:45.912Z,17.30
2022-08-17T05:23:17.981Z,15.50
2022-08-17T05:25:50.516Z,15.10
2022-08-17T05:28:24.093Z,14.90
2022-08-17T05:31:25.482Z,17.30
2022-08-17T05:33:54.206Z,15.20
2022-08-17T05:36:41.933Z,14.70
2022-08-17T05:39:16.320Z,13.30
2022-08-17T05:41:48.845Z,18.70
2022-08-17T05:44:19.353Z,14.80
2022-08-17T05:46:55.240Z,14.50
2022-08-17T05:49:28.033Z,13.70
2022-08-17T05:52:22.050Z,14.30
2022-08-17T05:55:01.175Z,13.70
2022-08-17T05:58:51.643Z,13.70
2022-08-17T06:01:27.136Z,12.60
2022-08-17T06:03:59.518Z,13.90
2022-08-17T06:11:58.818Z,13.30
2022-08-17T06:14:34.398Z,14.40
2022-08-17T06:17:10.493Z,13.10
2022-08-17T06:20:01.871Z,14.10
2022-08-17T06:22:36.586Z,12.20
2022-08-17T06:25:20.506Z,12.70
2022-08-17T06:27:58.588Z,12.40
2022-08-17T06:30:58.455Z,12.40
2022-08-17T06:33:37.290Z,15.60
2022-08-17T06:36:40.265Z,12.40
2022-08-17T06:39:19.847Z,11.70
2022-08-17T06:42:05.439Z,12.10
2022-08-17T06:44:49.789Z,11.30
2022-08-17T06:47:52.984Z,11.80
2022-08-17T06:50:41.596Z,11.50
2022-08-17T06:53:22.123Z,16.70
2022-08-17T06:56:09.079Z,12.20
2022-08-17T06:58:40.298Z,16.40
2022-08-17T07:01:18.756Z,20.40
2022-08-17T07:03:54.671Z,15.20
2022-08-17T07:06:29.921Z,20.40
2022-08-17T07:09:13.725Z,15.50
2022-08-17T07:11:56.983Z,12.60
2022-08-17T07:15:05.983Z,11.90
2022-08-17T07:17:47.448Z,11.80
2022-08-17T07:20:31.530Z,11.30
2022-08-17T07:23:30.417Z,11.30
2022-08-17T07:26:09.050Z,12.30
2022-08-17T07:28:37.428Z,13.20
2022-08-17T07:31:12.931Z,11.90
2022-08-17T07:34:00.299Z,11.60
2022-08-17T07:36:33.815Z,11.40
2022-08-17T07:39:03.682Z,15.70
2022-08-17T07:41:53.243Z,10.80
2022-08-17T07:44:26.981Z,11.40
2022-08-17T07:47:14.353Z,10.30
2022-08-17T07:49:50.566Z,10.30
2022-08-17T07:52:51.828Z,11.60
2022-08-17T07:58:00.298Z,11.40
2022-08-17T08:00:32.606Z,10.60
2022-08-17T08:03:06.494Z,11.20
2022-08-17T08:05:49.695Z,13.20
2022-08-17T08:08:43.557Z,9.60
2022-08-17T08:11:15.481Z,9.30
2022-08-17T08:13:45.767Z,8.70
2022-08-17T08:16:27.157Z,10.30
2022-08-17T08:19:03.315Z,11.40
2022-08-17T08:22:16.650Z,10.50
2022-08-17T08:25:07.340Z,8.50
2022-08-17T08:27:54.853Z,12.10
2022-08-17T08:30:28.228Z,9.60
2022-08-17T08:33:20.904Z,10.30
2022-08-17T08:36:57.122Z,13.20
2022-08-17T08:39:19.758Z,10.10
2022-08-17T08:41:59.909Z,12.60
2022-08-17T08:45:00.140Z,9.10
2022-08-17T08:47:58.193Z,11.20
2022-08-17T08:51:15.795Z,9.70
2022-08-17T08:53:49.436Z,9.50
2022-08-17T08:57:11.573Z,9.40
2022-08-17T09:00:02.007Z,9.30
2022-08-17T09:02:35.146Z,9.30
2022-08-17T09:05:14.380Z,10.80
2022-08-17T09:07:58.871Z,9.40
2022-08-17T09:10:50.350Z,10.90
2022-08-17T09:16:16.606Z,9.50
2022-08-17T09:19:02.550Z,12.40
2022-08-17T09:21:38.321Z,9.40
2022-08-17T09:24:25.682Z,9.60
2022-08-17T09:27:13.323Z,9.80
2022-08-17T09:29:49.241Z,8.80
2022-08-17T09:32:31.474Z,12.10
2022-08-17T09:35:09.449Z,9.50
2022-08-17T09:38:01.793Z,10.00
2022-08-17T09:41:03.048Z,8.70
2022-08-17T09:43:41.555Z,7.90
2022-08-17T09:46:19.348Z,9.60
2022-08-17T09:49:07.634Z,8.50
2022-08-17T09:51:49.510Z,9.10
2022-08-17T09:54:41.156Z,9.30
2022-08-17T10:00:23.882Z,9.20
2022-08-17T10:03:16.551Z,7.70
2022-08-17T10:05:57.087Z,8.00
2022-08-17T10:08:52.604Z,10.60
2022-08-17T10:12:10.101Z,7.50
2022-08-17T10:14:55.125Z,7.70
2022-08-17T10:17:31.316Z,7.80
2022-08-17T10:20:14.889Z,7.20
2022-08-17T10:23:04.673Z,7.60
2022-08-17T10:25:56.047Z,7.90
2022-08-17T10:28:31.981Z,7.40
2022-08-17T10:31:33.689Z,6.80
2022-08-17T10:34:07.359Z,7.30
2022-08-17T10:37:09.517Z,7.90
2022-08-17T10:40:16.730Z,7.70
2022-08-17T10:43:07.358Z,7.30
2022-08-17T10:46:09.229Z,7.20
2022-08-17T10:49:04.414Z,8.80
2022-08-17T10:51:55.559Z,7.90
2022-08-17T10:54:49.723Z,7.60
2022-08-17T10:57:28.169Z,7.40
2022-08-17T11:00:35.647Z,7.40
2022-08-17T11:03:22.403Z,8.80
2022-08-17T11:06:29.599Z,6.60
2022-08-17T11:09:53.135Z,8.30
2022-08-17T11:12:33.674Z,7.20
2022-08-17T11:15:10.436Z,9.20
2022-08-17T11:17:51.333Z,6.40
2022-08-17T11:23:26.174Z,8.30
2022-08-17T11:26:01.678Z,8.20
2022-08-17T11:28:36.064Z,7.20
2022-08-17T11:31:39.270Z,9.30
2022-08-17T11:34:18.891Z,7.00
2022-08-17T11:37:08.648Z,8.50
2022-08-17T11:39:49.092Z,7.80
2022-08-17T11:42:30.793Z,6.70
2022-08-17T11:45:08.033Z,6.30
2022-08-17T11:48:27.008Z,6.40
2022-08-17T11:51:47.204Z,5.70
2022-08-17T11:54:34.579Z,5.90
2022-08-17T11:57:41.858Z,5.90
2022-08-17T12:01:00.148Z,5.90
2022-08-17T12:03:33.502Z,6.20
2022-08-17T12:06:31.106Z,5.60
2022-08-17T12:09:24.772Z,5.80
2022-08-17T12:12:12.781Z,5.70
2022-08-17T12:15:09.582Z,5.10
2022-08-17T12:17:50.260Z,5.60
2022-08-17T12:20:28.434Z,6.90
2022-08-17T12:23:32.298Z,6.00
2022-08-17T12:26:01.598Z,6.40
2022-08-17T12:28:38.217Z,5.20
2022-08-17T12:31:26.402Z,5.70
2022-08-17T12:33:56.797Z,5.80
2022-08-17T12:36:28.267Z,6.00
2022-08-17T12:39:14.139Z,5.90
2022-08-17T12:41:47.145Z,5.60
2022-08-17T12:44:24.820Z,6.30
2022-08-17T12:50:28.684Z,6.30
2022-08-17T12:53:01.929Z,6.30
2022-08-17T12:55:37.632Z,5.60
2022-08-17T12:58:15.370Z,6.60
2022-08-17T13:00:50.047Z,5.80
2022-08-17T13:03:23.044Z,6.60
2022-08-17T13:05:58.085Z,5.90
2022-08-17T13:09:40.760Z,6.10
2022-08-17T13:15:36.160Z,6.30
2022-08-17T13:18:52.511Z,6.20
2022-08-17T13:21:31.138Z,7.60
2022-08-17T13:24:08.024Z,5.70
2022-08-17T13:26:48.701Z,6.00
2022-08-17T13:29:23.358Z,5.80
2022-08-17T13:32:45.623Z,6.50
2022-08-17T13:35:39.559Z,6.40
2022-08-17T13:38:38.570Z,5.60
2022-08-17T13:41:42.697Z,6.20
2022-08-17T13:44:35.135Z,5.70
2022-08-17T13:48:14.019Z,6.30
2022-08-17T13:51:58.570Z,6.40
2022-08-17T13:54:35.206Z,5.60
2022-08-17T13:57:18.169Z,7.10
2022-08-17T13:59:53.807Z,5.80
2022-08-17T14:02:27.630Z,6.50
2022-08-17T14:04:58.685Z,6.40
2022-08-17T14:07:32.130Z,6.20
2022-08-17T14:10:16.709Z,5.90
2022-08-17T14:12:46.682Z,6.10
2022-08-17T14:15:20.804Z,6.40
2022-08-17T14:17:57.097Z,5.80
2022-08-17T14:20:26.699Z,6.10
2022-08-17T14:22:56.130Z,6.00
2022-08-17T14:25:32.477Z,5.90
2022-08-17T14:28:10.198Z,5.80
2022-08-17T14:30:44.075Z,6.00
2022-08-17T14:33:14.598Z,6.70
2022-08-17T14:35:49.329Z,6.30
2022-08-17T14:38:19.570Z,6.00
2022-08-17T14:40:56.281Z,5.60
2022-08-17T14:43:44.739Z,6.10
2022-08-17T14:46:15.933Z,7.80
2022-08-17T14:48:55.156Z,5.90
2022-08-17T14:51:30.971Z,6.10
2022-08-17T14:54:00.665Z,6.50
2022-08-17T14:56:31.694Z,6.30
2022-08-17T14:59:10.047Z,6.60
2022-08-17T15:01:44.143Z,6.20
2022-08-17T15:04:21.463Z,5.40
2022-08-17T15:06:51.625Z,6.00
2022-08-17T15:09:26.033Z,6.30
2022-08-17T15:11:57.338Z,6.30
2022-08-17T15:14:26.651Z,6.10
2022-08-17T15:16:55.104Z,6.00
2022-08-17T15:19:26.142Z,6.30
2022-08-17T15:21:54.460Z,6.50
2022-08-17T15:24:22.620Z,6.00
2022-08-17T15:26:52.690Z,6.00
2022-08-17T15:31:52.267Z,6.30
2022-08-17T15:34:22.559Z,7.80
2022-08-17T15:36:50.751Z,6.60
2022-08-17T15:39:19.562Z,10.40
2022-08-17T15:41:58.437Z,6.10
2022-08-17T15:44:32.537Z,8.20
2022-08-17T15:47:03.622Z,5.90
2022-08-17T15:49:31.802Z,6.40
2022-08-17T15:52:00.040Z,6.40
2022-08-17T15:54:36.085Z,5.90
2022-08-17T15:57:05.711Z,6.30
2022-08-17T15:59:35.139Z,6.60
2022-08-17T16:03:01.187Z,6.20
2022-08-17T16:05:10.691Z,6.80
2022-08-17T16:07:39.317Z,6.40
2022-08-17T16:10:08.595Z,6.70
2022-08-17T16:12:47.907Z,6.90
2022-08-17T16:15:16.749Z,6.50
2022-08-17T16:17:45.125Z,6.60
2022-08-17T16:20:20.610Z,6.60
2022-08-17T16:22:50.548Z,7.20
2022-08-17T16:25:38.378Z,6.10
2022-08-17T16:28:22.406Z,6.00
2022-08-17T16:30:58.894Z,7.80
2022-08-17T16:33:28.410Z,7.40
2022-08-17T16:35:58.310Z,9.60
2022-08-17T16:38:27.223Z,7.30
2022-08-17T16:40:56.582Z,8.60
2022-08-17T16:43:25.719Z,10.70
2022-08-17T16:45:55.013Z,7.20
2022-08-17T16:48:29.036Z,7.30
2022-08-17T16:51:03.404Z,6.70
2022-08-17T16:53:33.607Z,8.50
2022-08-17T16:56:02.021Z,8.10
2022-08-17T16:58:31.131Z,10.30
2022-08-17T17:00:59.920Z,7.70
2022-08-17T17:03:30.043Z,7.30
2022-08-17T17:06:10.180Z,7.20
2022-08-17T17:09:00.882Z,7.30
2022-08-17T17:11:41.792Z,7.50
2022-08-17T17:14:15.548Z,7.20
2022-08-17T17:16:52.561Z,7.40
2022-08-17T17:19:40.603Z,6.90
2022-08-17T17:22:16.409Z,8.70
2022-08-17T17:24:53.959Z,9.10
2022-08-17T17:27:29.572Z,7.30
2022-08-17T17:30:09.952Z,8.40
2022-08-17T17:33:07.770Z,9.90
2022-08-17T17:35:50.838Z,7.60
2022-08-17T17:38:23.633Z,7.80
2022-08-17T17:41:04.514Z,7.40
2022-08-17T17:43:39.836Z,10.70
2022-08-17T17:46:30.616Z,7.10
2022-08-17T17:49:06.087Z,7.90
2022-08-17T17:51:54.808Z,7.00
2022-08-17T17:54:43.049Z,8.70
2022-08-17T17:57:22.416Z,7.40
2022-08-17T18:00:00.722Z,7.20
2022-08-17T18:03:07.357Z,7.60
2022-08-17T18:05:58.369Z,7.70
2022-08-17T18:09:02.191Z,7.10
2022-08-17T18:11:53.001Z,8.10
2022-08-17T18:14:55.519Z,8.10
2022-08-17T18:17:24.539Z,8.50
2022-08-17T18:21:46.231Z,8.60
2022-08-17T18:23:17.984Z,11.00
2022-08-17T18:25:50.443Z,9.50
2022-08-17T18:28:23.671Z,10.90
2022-08-17T18:31:11.260Z,10.20
2022-08-17T18:33:42.471Z,10.60
2022-08-17T18:36:11.808Z,10.50
2022-08-17T18:38:42.227Z,9.90
2022-08-17T18:41:19.289Z,11.80
2022-08-17T18:44:19.608Z,11.60
2022-08-17T18:47:05.620Z,11.20
2022-08-17T18:49:36.578Z,11.10
2022-08-17T18:52:32.953Z,11.30
2022-08-17T18:55:56.272Z,14.00
2022-08-17T18:58:53.910Z,16.50
2022-08-17T19:02:16.096Z,12.30
2022-08-17T19:05:18.621Z,11.90
2022-08-17T19:07:50.499Z,12.80
2022-08-17T19:10:46.714Z,14.10
2022-08-17T19:13:24.069Z,14.00
2022-08-17T19:16:15.692Z,12.20
2022-08-17T19:18:50.244Z,14.40
2022-08-17T19:21:35.374Z,12.40
2022-08-17T19:24:20.201Z,13.20
2022-08-17T19:27:19.894Z,15.80
2022-08-17T19:30:11.890Z,15.10
2022-08-17T19:32:41.194Z,14.20
2022-08-17T19:35:17.994Z,15.60
2022-08-17T19:38:13.173Z,14.60
2022-08-17T19:41:41.102Z,14.30
2022-08-17T19:44:53.270Z,17.00
2022-08-17T19:47:54.839Z,17.50
2022-08-17T19:50:50.204Z,14.90
2022-08-17T19:54:04.780Z,18.30
2022-08-17T19:57:10.583Z,14.70
2022-08-17T20:00:00.077Z,16.50
2022-08-17T20:02:32.734Z,16.10
2022-08-17T20:05:06.850Z,16.40
2022-08-17T20:08:09.752Z,15.40
2022-08-17T20:11:02.634Z,17.20
2022-08-17T20:13:56.817Z,18.40
2022-08-17T20:16:26.295Z,16.70
2022-08-17T20:19:25.278Z,14.20
2022-08-17T20:22:50.391Z,17.00
2022-08-17T20:26:04.527Z,14.20
2022-08-17T20:28:35.988Z,16.20
2022-08-17T20:33:38.378Z,12.20
2022-08-17T20:36:24.895Z,15.00
2022-08-17T20:38:59.901Z,14.70
2022-08-17T20:41:33.419Z,14.10
2022-08-17T20:44:05.275Z,12.00
2022-08-17T20:46:36.669Z,12.70
2022-08-17T20:49:28.077Z,12.20
2022-08-17T20:52:13.727Z,13.70
2022-08-17T20:54:53.579Z,11.90
2022-08-17T20:57:31.777Z,13.30
2022-08-17T21:00:14.203Z,12.90
2022-08-17T21:02:49.878Z,12.00
2022-08-17T21:05:36.099Z,12.90
2022-08-17T21:08:53.815Z,14.00
2022-08-17T21:12:02.910Z,16.60
2022-08-17T21:14:34.522Z,12.70
2022-08-17T21:17:31.176Z,20.10
2022-08-17T21:20:13.067Z,14.40
2022-08-17T21:23:05.312Z,16.30
2022-08-17T21:25:49.310Z,14.20
2022-08-17T21:29:00.929Z,14.00
2022-08-17T21:31:35.269Z,13.40
2022-08-17T21:34:15.956Z,12.10
2022-08-17T21:36:48.563Z,13.00
2022-08-17T21:39:24.025Z,16.20
2022-08-17T21:42:00.534Z,12.40
2022-08-17T21:44:38.046Z,12.30
2022-08-17T21:47:26.558Z,12.50
2022-08-17T21:50:18.808Z,12.40
2022-08-17T21:52:56.295Z,13.10
2022-08-17T21:55:31.221Z,13.30
2022-08-17T21:58:24.568Z,12.40
2022-08-17T22:01:21.366Z,13.00
2022-08-17T22:03:55.829Z,12.30
2022-08-17T22:06:34.577Z,11.80
2022-08-17T22:09:25.913Z,12.30
2022-08-17T22:12:17.118Z,12.30
2022-08-17T22:14:51.507Z,12.10
2022-08-17T22:17:30.160Z,13.40
2022-08-17T22:20:19.135Z,15.50
2022-08-17T22:23:10.292Z,12.80
2022-08-17T22:25:42.436Z,11.50
2022-08-17T22:28:12.851Z,14.50
2022-08-17T22:31:08.344Z,14.90
2022-08-17T22:33:47.957Z,14.50
2022-08-17T22:36:41.996Z,11.90
2022-08-17T22:39:11.290Z,12.80
2022-08-17T22:42:04.473Z,12.10
2022-08-17T22:44:49.129Z,14.30
2022-08-17T22:47:22.976Z,11.90
2022-08-17T22:52:34.411Z,11.60
2022-08-17T22:55:34.287Z,11.60
2022-08-17T22:58:32.081Z,12.00
2022-08-17T23:01:34.369Z,12.10
2022-08-17T23:04:38.863Z,13.80
2022-08-17T23:07:22.567Z,11.70
2022-08-17T23:10:06.064Z,11.60
2022-08-17T23:12:39.966Z,12.50
2022-08-17T23:15:20.730Z,12.80
2022-08-17T23:17:49.368Z,16.60
2022-08-17T23:20:19.273Z,14.80
2022-08-17T23:22:51.382Z,15.20
2022-08-17T23:25:41.031Z,12.00
2022-08-17T23:28:11.361Z,15.80
2022-08-17T23:30:43.849Z,12.20
2022-08-17T23:33:34.374Z,14.50
2022-08-17T23:36:10.006Z,13.40
2022-08-17T23:38:38.803Z,12.10
2022-08-17T23:41:12.180Z,13.10
2022-08-17T23:43:49.131Z,12.10
2022-08-17T23:46:22.723Z,12.60
2022-08-17T23:48:55.104Z,15.20
2022-08-17T23:51:39.901Z,14.20
2022-08-17T23:54:21.942Z,11.80
2022-08-17T23:56:56.622Z,12.50
2022-08-17T23:59:28.760Z,13.10
